createdAt,value
2018-03-14T00:00:49.308Z,996.47
2018-03-14T00:01:49.324Z,996.53
2018-03-14T00:02:49.331Z,996.48
2018-03-14T00:03:49.343Z,996.48
2018-03-14T00:04:49.357Z,996.55
2018-03-14T00:05:49.370Z,996.51
2018-03-14T00:06:49.382Z,996.53
2018-03-14T00:07:49.397Z,996.51
2018-03-14T00:08:49.409Z,996.54
2018-03-14T00:09:49.422Z,996.56
2018-03-14T00:10:49.436Z,996.56
2018-03-14T00:11:49.449Z,996.54
2018-03-14T00:12:49.462Z,996.57
2018-03-14T00:13:49.473Z,996.6
2018-03-14T00:14:49.486Z,996.54
2018-03-14T00:15:49.500Z,996.56
2018-03-14T00:16:49.513Z,996.57
2018-03-14T00:17:49.526Z,996.64
2018-03-14T00:18:49.538Z,996.63
2018-03-14T00:19:49.550Z,996.63
2018-03-14T00:20:49.564Z,996.63
2018-03-14T00:21:49.576Z,996.65
2018-03-14T00:22:49.589Z,996.64
2018-03-14T00:23:49.604Z,996.67
2018-03-14T00:24:49.614Z,996.69
2018-03-14T00:25:49.628Z,996.69
2018-03-14T00:26:49.640Z,996.69
2018-03-14T00:27:49.655Z,996.66
2018-03-14T00:28:49.667Z,996.73
2018-03-14T00:29:49.679Z,996.71
2018-03-14T00:30:49.695Z,996.75
2018-03-14T00:31:49.704Z,996.8
2018-03-14T00:32:49.722Z,996.77
2018-03-14T00:33:49.731Z,996.78
2018-03-14T00:34:49.745Z,996.78
2018-03-14T00:35:49.756Z,996.76
2018-03-14T00:36:49.769Z,996.8
2018-03-14T00:37:49.783Z,996.79
2018-03-14T00:38:49.799Z,996.79
2018-03-14T00:39:49.808Z,996.75
2018-03-14T00:40:49.820Z,996.81
2018-03-14T00:41:49.833Z,996.81
2018-03-14T00:42:49.846Z,996.83
2018-03-14T00:43:49.859Z,996.82
2018-03-14T00:44:49.871Z,996.86
2018-03-14T00:45:49.885Z,996.83
2018-03-14T00:46:49.898Z,996.84
2018-03-14T00:47:49.957Z,996.92
2018-03-14T00:48:49.926Z,996.91
2018-03-14T00:49:49.937Z,996.88
2018-03-14T00:50:49.949Z,996.89
2018-03-14T00:51:49.960Z,996.91
2018-03-14T00:52:49.978Z,996.9
2018-03-14T00:53:49.989Z,996.91
2018-03-14T00:54:50.000Z,996.89
2018-03-14T00:55:50.015Z,996.91
2018-03-14T00:56:50.026Z,996.95
2018-03-14T00:57:50.038Z,996.94
2018-03-14T00:58:50.050Z,996.98
2018-03-14T00:59:50.065Z,996.98
2018-03-14T01:00:50.077Z,997
2018-03-14T01:01:50.093Z,996.98
2018-03-14T01:02:50.102Z,997
2018-03-14T01:03:50.117Z,996.98
2018-03-14T01:04:50.127Z,997.02
2018-03-14T01:05:50.140Z,997.05
2018-03-14T01:06:50.154Z,997.07
2018-03-14T01:07:50.173Z,997.04
2018-03-14T01:08:50.179Z,997.07
2018-03-14T01:09:50.191Z,997.06
2018-03-14T01:10:50.206Z,997.02
2018-03-14T01:11:50.217Z,997.06
2018-03-14T01:12:50.232Z,997.07
2018-03-14T01:13:50.244Z,997.08
2018-03-14T01:14:50.257Z,997.07
2018-03-14T01:15:50.270Z,997.09
2018-03-14T01:16:50.283Z,997.08
2018-03-14T01:17:50.295Z,997.07
2018-03-14T01:18:50.308Z,997.08
2018-03-14T01:19:50.320Z,997.1
2018-03-14T01:20:50.333Z,997.09
2018-03-14T01:21:50.348Z,997.11
2018-03-14T01:22:50.361Z,997.12
2018-03-14T01:23:50.370Z,997.11
2018-03-14T01:24:50.391Z,997.13
2018-03-14T01:25:50.396Z,997.11
2018-03-14T01:26:50.410Z,997.11
2018-03-14T01:27:50.424Z,997.13
2018-03-14T01:28:50.436Z,997.11
2018-03-14T01:29:50.451Z,997.13
2018-03-14T01:30:50.462Z,997.11
2018-03-14T01:31:50.476Z,997.07
2018-03-14T01:32:50.491Z,997.08
2018-03-14T01:33:50.500Z,997.07
2018-03-14T01:34:50.514Z,997.08
2018-03-14T01:35:50.527Z,997.09
2018-03-14T01:36:50.540Z,997.1
2018-03-14T01:37:50.553Z,997.05
2018-03-14T01:38:50.565Z,997.07
2018-03-14T01:39:50.578Z,997.06
2018-03-14T01:40:50.590Z,997.11
2018-03-14T01:41:50.602Z,997.09
2018-03-14T01:42:50.616Z,997.1
2018-03-14T01:43:50.629Z,997.06
2018-03-14T01:44:50.642Z,997.08
2018-03-14T01:45:50.654Z,997.07
2018-03-14T01:46:50.668Z,997.11
2018-03-14T01:47:50.679Z,997.12
2018-03-14T01:48:50.693Z,997.08
2018-03-14T01:49:50.705Z,997.13
2018-03-14T01:50:50.717Z,997.13
2018-03-14T01:51:50.734Z,997.15
2018-03-14T01:52:50.743Z,997.16
2018-03-14T01:53:50.756Z,997.17
2018-03-14T01:54:50.771Z,997.16
2018-03-14T01:55:50.783Z,997.17
2018-03-14T01:56:50.798Z,997.14
2018-03-14T01:57:50.809Z,997.16
2018-03-14T01:58:50.823Z,997.18
2018-03-14T01:59:50.835Z,997.14
2018-03-14T02:00:50.847Z,997.19
2018-03-14T02:01:50.862Z,997.2
2018-03-14T02:02:50.873Z,997.25
2018-03-14T02:03:50.887Z,997.22
2018-03-14T02:04:50.900Z,997.18
2018-03-14T02:05:50.912Z,997.22
2018-03-14T02:06:50.927Z,997.2
2018-03-14T02:07:50.940Z,997.2
2018-03-14T02:08:51.003Z,997.23
2018-03-14T02:09:50.964Z,997.22
2018-03-14T02:10:50.977Z,997.17
2018-03-14T02:11:50.990Z,997.21
2018-03-14T02:12:51.002Z,997.26
2018-03-14T02:13:51.015Z,997.24
2018-03-14T02:14:51.027Z,997.24
2018-03-14T02:15:51.040Z,997.25
2018-03-14T02:16:51.053Z,997.24
2018-03-14T02:17:51.065Z,997.24
2018-03-14T02:18:51.080Z,997.28
2018-03-14T02:19:51.091Z,997.31
2018-03-14T02:20:51.104Z,997.28
2018-03-14T02:21:51.119Z,997.3
2018-03-14T02:22:51.129Z,997.31
2018-03-14T02:23:51.145Z,997.34
2018-03-14T02:24:51.158Z,997.35
2018-03-14T02:25:51.169Z,997.41
2018-03-14T02:26:51.182Z,997.39
2018-03-14T02:27:51.196Z,997.42
2018-03-14T02:28:51.207Z,997.39
2018-03-14T02:29:51.220Z,997.4
2018-03-14T02:30:51.233Z,997.42
2018-03-14T02:31:51.246Z,997.43
2018-03-14T02:32:51.259Z,997.42
2018-03-14T02:33:51.273Z,997.41
2018-03-14T02:34:51.285Z,997.41
2018-03-14T02:35:51.298Z,997.44
2018-03-14T02:36:51.311Z,997.47
2018-03-14T02:37:51.323Z,997.49
2018-03-14T02:38:51.336Z,997.49
2018-03-14T02:39:51.349Z,997.49
2018-03-14T02:40:51.361Z,997.48
2018-03-14T02:41:51.374Z,997.48
2018-03-14T02:42:51.388Z,997.53
2018-03-14T02:43:51.400Z,997.5
2018-03-14T02:44:51.413Z,997.51
2018-03-14T02:45:51.428Z,997.53
2018-03-14T02:46:51.442Z,997.51
2018-03-14T02:47:51.451Z,997.52
2018-03-14T02:48:51.465Z,997.49
2018-03-14T02:49:51.484Z,997.51
2018-03-14T02:50:51.490Z,997.52
2018-03-14T02:51:51.506Z,997.52
2018-03-14T02:52:51.515Z,997.54
2018-03-14T02:53:51.530Z,997.49
2018-03-14T02:54:51.542Z,997.56
2018-03-14T02:55:51.555Z,997.53
2018-03-14T02:56:51.567Z,997.51
2018-03-14T02:57:51.580Z,997.54
2018-03-14T02:58:51.592Z,997.55
2018-03-14T02:59:51.604Z,997.52
2018-03-14T03:00:51.621Z,997.51
2018-03-14T03:01:51.631Z,997.5
2018-03-14T03:02:51.694Z,997.5
2018-03-14T03:03:51.657Z,997.55
2018-03-14T03:04:51.669Z,997.55
2018-03-14T03:05:51.682Z,997.54
2018-03-14T03:06:51.696Z,997.58
2018-03-14T03:07:51.708Z,997.58
2018-03-14T03:08:51.720Z,997.58
2018-03-14T03:09:51.733Z,997.61
2018-03-14T03:10:51.746Z,997.6
2018-03-14T03:11:51.759Z,997.6
2018-03-14T03:12:51.807Z,997.62
2018-03-14T03:13:51.787Z,997.63
2018-03-14T03:14:51.797Z,997.65
2018-03-14T03:15:51.810Z,997.63
2018-03-14T03:16:51.822Z,997.64
2018-03-14T03:17:51.836Z,997.66
2018-03-14T03:18:51.848Z,997.64
2018-03-14T03:19:51.865Z,997.63
2018-03-14T03:20:51.874Z,997.64
2018-03-14T03:21:51.886Z,997.65
2018-03-14T03:22:51.900Z,997.7
2018-03-14T03:23:51.912Z,997.68
2018-03-14T03:24:51.927Z,997.67
2018-03-14T03:25:51.939Z,997.7
2018-03-14T03:26:51.954Z,997.73
2018-03-14T03:27:51.964Z,997.74
2018-03-14T03:28:51.978Z,997.76
2018-03-14T03:29:51.990Z,997.78
2018-03-14T03:30:52.005Z,997.77
2018-03-14T03:31:52.016Z,997.75
2018-03-14T03:32:52.028Z,997.76
2018-03-14T03:33:52.047Z,997.76
2018-03-14T03:34:52.083Z,997.81
2018-03-14T03:35:52.066Z,997.83
2018-03-14T03:36:52.082Z,997.85
2018-03-14T03:37:52.096Z,997.84
2018-03-14T03:38:52.105Z,997.84
2018-03-14T03:39:52.121Z,997.84
2018-03-14T03:40:52.133Z,997.89
2018-03-14T03:41:52.146Z,997.89
2018-03-14T03:42:52.159Z,997.87
2018-03-14T03:43:52.170Z,997.9
2018-03-14T03:44:52.186Z,997.92
2018-03-14T03:45:52.195Z,997.93
2018-03-14T03:46:52.208Z,997.96
2018-03-14T03:47:52.221Z,997.94
2018-03-14T03:48:52.235Z,997.96
2018-03-14T03:49:52.247Z,997.94
2018-03-14T03:50:52.260Z,997.94
2018-03-14T03:51:52.271Z,997.97
2018-03-14T03:52:52.287Z,997.94
2018-03-14T03:53:52.299Z,997.98
2018-03-14T03:54:52.310Z,997.97
2018-03-14T03:55:52.324Z,997.97
2018-03-14T03:56:52.337Z,997.96
2018-03-14T03:57:52.348Z,998.01
2018-03-14T03:58:52.362Z,997.98
2018-03-14T03:59:52.383Z,997.97
2018-03-14T04:00:52.391Z,997.99
2018-03-14T04:01:52.401Z,998.01
2018-03-14T04:02:52.414Z,997.97
2018-03-14T04:03:52.429Z,997.98
2018-03-14T04:04:52.439Z,997.99
2018-03-14T04:05:52.452Z,997.99
2018-03-14T04:06:52.464Z,997.99
2018-03-14T04:07:52.478Z,997.98
2018-03-14T04:08:52.491Z,997.99
2018-03-14T04:09:52.503Z,997.98
2018-03-14T04:10:52.516Z,997.99
2018-03-14T04:11:52.530Z,997.98
2018-03-14T04:12:52.542Z,998.05
2018-03-14T04:13:52.555Z,997.99
2018-03-14T04:14:52.572Z,998.01
2018-03-14T04:15:52.581Z,998.04
2018-03-14T04:16:52.593Z,997.98
2018-03-14T04:17:52.607Z,998
2018-03-14T04:18:52.618Z,998.01
2018-03-14T04:19:52.639Z,998
2018-03-14T04:20:52.645Z,998.02
2018-03-14T04:21:52.658Z,998.06
2018-03-14T04:22:52.679Z,998.06
2018-03-14T04:23:52.698Z,998.05
2018-03-14T04:24:52.696Z,998.06
2018-03-14T04:25:52.708Z,998.07
2018-03-14T04:26:52.721Z,997.98
2018-03-14T04:27:52.736Z,998.03
2018-03-14T04:28:52.748Z,997.99
2018-03-14T04:29:52.763Z,998.03
2018-03-14T04:30:52.774Z,998.06
2018-03-14T04:31:52.788Z,998.06
2018-03-14T04:32:52.799Z,998.06
2018-03-14T04:33:52.812Z,998.07
2018-03-14T04:34:52.826Z,998.09
2018-03-14T04:35:52.888Z,998.13
2018-03-14T04:36:52.851Z,998.14
2018-03-14T04:37:52.865Z,998.13
2018-03-14T04:38:52.877Z,998.19
2018-03-14T04:39:52.889Z,998.17
2018-03-14T04:40:52.901Z,998.16
2018-03-14T04:41:52.915Z,998.17
2018-03-14T04:42:52.928Z,998.14
2018-03-14T04:43:52.940Z,998.17
2018-03-14T04:44:52.953Z,998.22
2018-03-14T04:45:52.966Z,998.18
2018-03-14T04:46:52.978Z,998.22
2018-03-14T04:47:52.993Z,998.19
2018-03-14T04:48:53.004Z,998.23
2018-03-14T04:49:53.018Z,998.17
2018-03-14T04:50:53.083Z,998.25
2018-03-14T04:51:53.045Z,998.23
2018-03-14T04:52:53.057Z,998.26
2018-03-14T04:53:53.069Z,998.27
2018-03-14T04:54:53.083Z,998.26
2018-03-14T04:55:53.095Z,998.26
2018-03-14T04:56:53.108Z,998.26
2018-03-14T04:57:53.120Z,998.27
2018-03-14T04:58:53.133Z,998.31
2018-03-14T04:59:53.147Z,998.3
2018-03-14T05:00:53.159Z,998.29
2018-03-14T05:01:53.173Z,998.28
2018-03-14T05:02:53.184Z,998.31
2018-03-14T05:03:53.197Z,998.3
2018-03-14T05:04:53.212Z,998.35
2018-03-14T05:05:53.277Z,998.34
2018-03-14T05:06:53.240Z,998.35
2018-03-14T05:07:53.251Z,998.35
2018-03-14T05:08:53.264Z,998.37
2018-03-14T05:09:53.275Z,998.38
2018-03-14T05:10:53.291Z,998.38
2018-03-14T05:11:53.303Z,998.4
2018-03-14T05:12:53.315Z,998.41
2018-03-14T05:13:53.327Z,998.41
2018-03-14T05:14:53.344Z,998.44
2018-03-14T05:15:53.354Z,998.44
2018-03-14T05:16:53.365Z,998.48
2018-03-14T05:17:53.381Z,998.46
2018-03-14T05:18:53.391Z,998.52
2018-03-14T05:19:53.404Z,998.51
2018-03-14T05:20:53.418Z,998.52
2018-03-14T05:21:53.430Z,998.55
2018-03-14T05:22:53.447Z,998.56
2018-03-14T05:23:53.459Z,998.55
2018-03-14T05:24:53.470Z,998.59
2018-03-14T05:25:53.481Z,998.6
2018-03-14T05:26:53.494Z,998.59
2018-03-14T05:27:53.506Z,998.59
2018-03-14T05:28:53.518Z,998.61
2018-03-14T05:29:53.533Z,998.6
2018-03-14T05:30:53.547Z,998.63
2018-03-14T05:31:53.558Z,998.63
2018-03-14T05:32:53.571Z,998.62
2018-03-14T05:33:53.584Z,998.6
2018-03-14T05:34:53.596Z,998.65
2018-03-14T05:35:53.609Z,998.64
2018-03-14T05:36:53.622Z,998.65
2018-03-14T05:37:53.635Z,998.65
2018-03-14T05:38:53.648Z,998.65
2018-03-14T05:39:53.660Z,998.65
2018-03-14T05:40:53.676Z,998.63
2018-03-14T05:41:53.688Z,998.63
2018-03-14T05:42:53.701Z,998.64
2018-03-14T05:43:53.712Z,998.63
2018-03-14T05:44:53.725Z,998.64
2018-03-14T05:45:53.739Z,998.63
2018-03-14T05:46:53.751Z,998.68
2018-03-14T05:47:53.764Z,998.68
2018-03-14T05:48:53.778Z,998.65
2018-03-14T05:49:53.790Z,998.67
2018-03-14T05:50:53.802Z,998.66
2018-03-14T05:51:53.816Z,998.66
2018-03-14T05:52:53.828Z,998.64
2018-03-14T05:53:53.839Z,998.63
2018-03-14T05:54:53.853Z,998.68
2018-03-14T05:55:53.867Z,998.64
2018-03-14T05:56:53.878Z,998.65
2018-03-14T05:57:53.891Z,998.63
2018-03-14T05:58:53.909Z,998.65
2018-03-14T05:59:53.919Z,998.63
2018-03-14T06:00:53.929Z,998.67
2018-03-14T06:01:53.943Z,998.65
2018-03-14T06:02:53.963Z,998.67
2018-03-14T06:03:53.971Z,998.66
2018-03-14T06:04:53.981Z,998.68
2018-03-14T06:05:53.996Z,998.7
2018-03-14T06:06:54.058Z,998.7
2018-03-14T06:07:54.021Z,998.71
2018-03-14T06:08:54.035Z,998.77
2018-03-14T06:09:54.046Z,998.75
2018-03-14T06:10:54.062Z,998.75
2018-03-14T06:11:54.071Z,998.76
2018-03-14T06:12:54.084Z,998.78
2018-03-14T06:13:54.101Z,998.77
2018-03-14T06:14:54.111Z,998.78
2018-03-14T06:15:54.124Z,998.76
2018-03-14T06:16:54.136Z,998.79
2018-03-14T06:17:54.148Z,998.77
2018-03-14T06:18:54.163Z,998.83
2018-03-14T06:19:54.175Z,998.79
2018-03-14T06:20:54.187Z,998.83
2018-03-14T06:21:54.202Z,998.83
2018-03-14T06:22:54.214Z,998.83
2018-03-14T06:23:54.226Z,998.85
2018-03-14T06:24:54.264Z,998.88
2018-03-14T06:25:54.253Z,998.87
2018-03-14T06:26:54.270Z,998.89
2018-03-14T06:27:54.277Z,998.91
2018-03-14T06:28:54.294Z,998.95
2018-03-14T06:29:54.386Z,998.97
2018-03-14T06:30:54.316Z,998.97
2018-03-14T06:31:54.329Z,999.01
2018-03-14T06:32:54.343Z,998.99
2018-03-14T06:33:54.354Z,998.99
2018-03-14T06:34:54.369Z,998.98
2018-03-14T06:35:54.384Z,999.01
2018-03-14T06:36:54.394Z,999.04
2018-03-14T06:37:54.406Z,999.03
2018-03-14T06:38:54.419Z,999.05
2018-03-14T06:39:54.433Z,999.08
2018-03-14T06:40:54.446Z,999.08
2018-03-14T06:41:54.460Z,999.05
2018-03-14T06:42:54.473Z,999.07
2018-03-14T06:43:54.485Z,999.08
2018-03-14T06:44:54.504Z,999.08
2018-03-14T06:45:54.513Z,999.09
2018-03-14T06:46:54.524Z,999.06
2018-03-14T06:47:54.538Z,999.08
2018-03-14T06:48:54.549Z,999.08
2018-03-14T06:49:54.562Z,999.09
2018-03-14T06:50:54.577Z,999.07
2018-03-14T06:51:54.587Z,999.11
2018-03-14T06:52:54.601Z,999.14
2018-03-14T06:53:54.614Z,999.14
2018-03-14T06:54:54.627Z,999.16
2018-03-14T06:55:54.641Z,999.15
2018-03-14T06:56:54.653Z,999.17
2018-03-14T06:57:54.667Z,999.18
2018-03-14T06:58:54.680Z,999.16
2018-03-14T06:59:54.696Z,999.15
2018-03-14T07:00:54.705Z,999.14
2018-03-14T07:01:54.733Z,999.17
2018-03-14T07:02:54.734Z,999.19
2018-03-14T07:03:54.745Z,999.21
2018-03-14T07:04:54.813Z,999.19
2018-03-14T07:05:54.771Z,999.15
2018-03-14T07:06:54.783Z,999.19
2018-03-14T07:07:54.796Z,999.19
2018-03-14T07:08:54.812Z,999.19
2018-03-14T07:09:54.823Z,999.17
2018-03-14T07:10:54.835Z,999.18
2018-03-14T07:11:54.903Z,999.15
2018-03-14T07:12:54.862Z,999.22
2018-03-14T07:13:54.873Z,999.18
2018-03-14T07:14:54.887Z,999.2
2018-03-14T07:15:54.915Z,999.22
2018-03-14T07:16:54.914Z,999.19
2018-03-14T07:17:54.926Z,999.21
2018-03-14T07:18:54.950Z,999.24
2018-03-14T07:19:54.953Z,999.27
2018-03-14T07:20:54.966Z,999.26
2018-03-14T07:21:54.980Z,999.25
2018-03-14T07:22:54.992Z,999.27
2018-03-14T07:23:55.005Z,999.28
2018-03-14T07:24:55.017Z,999.3
2018-03-14T07:25:55.030Z,999.34
2018-03-14T07:26:55.045Z,999.32
2018-03-14T07:27:55.059Z,999.31
2018-03-14T07:28:55.071Z,999.37
2018-03-14T07:29:55.085Z,999.38
2018-03-14T07:30:55.099Z,999.39
2018-03-14T07:31:55.115Z,999.4
2018-03-14T07:32:55.173Z,999.41
2018-03-14T07:33:55.136Z,999.43
2018-03-14T07:34:55.148Z,999.45
2018-03-14T07:35:55.162Z,999.46
2018-03-14T07:36:55.183Z,999.47
2018-03-14T07:37:55.238Z,999.49
2018-03-14T07:38:55.201Z,999.55
2018-03-14T07:39:55.214Z,999.54
2018-03-14T07:40:55.228Z,999.59
2018-03-14T07:41:55.240Z,999.56
2018-03-14T07:42:55.255Z,999.56
2018-03-14T07:43:55.268Z,999.58
2018-03-14T07:44:55.281Z,999.6
2018-03-14T07:45:55.295Z,999.63
2018-03-14T07:46:55.308Z,999.66
2018-03-14T07:47:55.320Z,999.7
2018-03-14T07:48:55.414Z,999.69
2018-03-14T07:49:55.348Z,999.67
2018-03-14T07:50:55.361Z,999.71
2018-03-14T07:51:55.373Z,999.7
2018-03-14T07:52:55.442Z,999.69
2018-03-14T07:53:55.401Z,999.71
2018-03-14T07:54:55.413Z,999.7
2018-03-14T07:55:55.426Z,999.68
2018-03-14T07:56:55.440Z,999.68
2018-03-14T07:57:55.452Z,999.67
2018-03-14T07:58:55.482Z,999.67
2018-03-14T07:59:55.479Z,999.68
2018-03-14T08:00:55.494Z,999.69
2018-03-14T08:01:55.509Z,999.69
2018-03-14T08:02:55.569Z,999.7
2018-03-14T08:03:55.534Z,999.7
2018-03-14T08:04:55.547Z,999.69
2018-03-14T08:05:55.560Z,999.72
2018-03-14T08:06:55.574Z,999.69
2018-03-14T08:07:55.588Z,999.68
2018-03-14T08:08:55.600Z,999.72
2018-03-14T08:09:55.614Z,999.71
2018-03-14T08:10:55.628Z,999.69
2018-03-14T08:11:55.640Z,999.66
2018-03-14T08:12:55.654Z,999.66
2018-03-14T08:13:55.705Z,999.68
2018-03-14T08:14:55.681Z,999.71
2018-03-14T08:15:55.714Z,999.71
2018-03-14T08:16:55.707Z,999.67
2018-03-14T08:17:55.722Z,999.7
2018-03-14T08:18:55.737Z,999.67
2018-03-14T08:19:55.750Z,999.68
2018-03-14T08:20:55.763Z,999.68
2018-03-14T08:21:55.775Z,999.66
2018-03-14T08:22:55.789Z,999.72
2018-03-14T08:23:55.802Z,999.71
2018-03-14T08:24:55.816Z,999.73
2018-03-14T08:25:55.865Z,999.75
2018-03-14T08:26:55.844Z,999.74
2018-03-14T08:27:55.856Z,999.74
2018-03-14T08:28:55.870Z,999.73
2018-03-14T08:29:55.889Z,999.71
2018-03-14T08:30:55.896Z,999.72
2018-03-14T08:31:55.909Z,999.75
2018-03-14T08:32:55.923Z,999.73
2018-03-14T08:33:55.959Z,999.77
2018-03-14T08:34:55.961Z,999.76
2018-03-14T08:35:55.964Z,999.7
2018-03-14T08:36:55.978Z,999.77
2018-03-14T08:37:56.004Z,999.76
2018-03-14T08:38:56.005Z,999.79
2018-03-14T08:39:56.020Z,999.73
2018-03-14T08:40:56.032Z,999.81
2018-03-14T08:41:56.058Z,999.79
2018-03-14T08:42:56.059Z,999.81
2018-03-14T08:43:56.077Z,999.8
2018-03-14T08:44:56.086Z,999.78
2018-03-14T08:45:56.099Z,999.8
2018-03-14T08:46:56.113Z,999.8
2018-03-14T08:47:56.128Z,999.82
2018-03-14T08:48:56.140Z,999.8
2018-03-14T08:49:56.154Z,999.8
2018-03-14T08:50:56.168Z,999.8
2018-03-14T08:51:56.181Z,999.79
2018-03-14T08:52:56.196Z,999.79
2018-03-14T08:53:56.208Z,999.76
2018-03-14T08:54:56.223Z,999.84
2018-03-14T08:55:56.236Z,999.81
2018-03-14T08:56:56.249Z,999.84
2018-03-14T08:57:56.272Z,999.83
2018-03-14T08:58:56.278Z,999.86
2018-03-14T08:59:56.291Z,999.87
2018-03-14T09:00:56.304Z,999.85
2018-03-14T09:01:56.318Z,999.86
2018-03-14T09:02:56.333Z,999.88
2018-03-14T09:03:56.344Z,999.89
2018-03-14T09:04:56.360Z,999.88
2018-03-14T09:05:56.372Z,999.86
2018-03-14T09:06:56.386Z,999.88
2018-03-14T09:07:56.400Z,999.86
2018-03-14T09:08:56.414Z,999.88
2018-03-14T09:09:56.427Z,999.87
2018-03-14T09:10:56.439Z,999.89
2018-03-14T09:11:56.453Z,999.85
2018-03-14T09:12:56.467Z,999.92
2018-03-14T09:13:56.481Z,999.94
2018-03-14T09:14:56.499Z,999.92
2018-03-14T09:15:56.513Z,999.93
2018-03-14T09:16:56.546Z,999.97
2018-03-14T09:17:56.544Z,999.94
2018-03-14T09:18:56.551Z,999.94
2018-03-14T09:19:56.564Z,999.94
2018-03-14T09:20:56.579Z,999.96
2018-03-14T09:21:56.591Z,999.97
2018-03-14T09:22:56.606Z,999.97
2018-03-14T09:23:56.620Z,999.99
2018-03-14T09:24:56.636Z,999.97
2018-03-14T09:25:56.646Z,999.94
2018-03-14T09:26:56.663Z,999.98
2018-03-14T09:27:56.677Z,999.95
2018-03-14T09:28:56.689Z,999.99
2018-03-14T09:29:56.707Z,999.94
2018-03-14T09:30:56.718Z,999.97
2018-03-14T09:31:56.731Z,1000.02
2018-03-14T09:32:56.745Z,999.98
2018-03-14T09:33:56.810Z,999.97
2018-03-14T09:34:56.773Z,999.98
2018-03-14T09:35:56.791Z,999.96
2018-03-14T09:36:56.800Z,999.93
2018-03-14T09:37:56.816Z,999.96
2018-03-14T09:38:56.829Z,999.98
2018-03-14T09:39:56.843Z,1000.01
2018-03-14T09:40:56.857Z,999.99
2018-03-14T09:41:56.870Z,999.98
2018-03-14T09:42:56.886Z,1000.02
2018-03-14T09:43:56.899Z,1000.05
2018-03-14T09:44:56.913Z,1000.03
2018-03-14T09:45:56.930Z,1000.01
2018-03-14T09:46:56.942Z,1000.06
2018-03-14T09:47:56.956Z,1000.04
2018-03-14T09:48:57.020Z,1000.06
2018-03-14T09:49:56.984Z,1000.02
2018-03-14T09:50:56.999Z,1000.08
2018-03-14T09:51:57.015Z,1000.06
2018-03-14T09:52:57.028Z,1000.08
2018-03-14T09:53:57.046Z,1000.06
2018-03-14T09:54:57.055Z,1000.06
2018-03-14T09:55:57.069Z,1000.07
2018-03-14T09:56:57.083Z,1000.09
2018-03-14T09:57:57.098Z,1000.11
2018-03-14T09:58:57.111Z,1000.12
2018-03-14T09:59:57.126Z,1000.1
2018-03-14T10:00:57.143Z,1000.11
2018-03-14T10:01:57.164Z,1000.13
2018-03-14T10:02:57.169Z,1000.09
2018-03-14T10:03:57.233Z,1000.1
2018-03-14T10:04:57.196Z,1000.08
2018-03-14T10:05:57.210Z,1000.09
2018-03-14T10:06:57.225Z,1000.09
2018-03-14T10:07:57.240Z,1000.12
2018-03-14T10:08:57.305Z,1000.15
2018-03-14T10:09:57.267Z,1000.13
2018-03-14T10:10:57.282Z,1000.12
2018-03-14T10:11:57.297Z,1000.11
2018-03-14T10:12:57.309Z,1000.13
2018-03-14T10:13:57.326Z,1000.14
2018-03-14T10:14:57.340Z,1000.14
2018-03-14T10:15:57.373Z,1000.12
2018-03-14T10:16:57.370Z,1000.14
2018-03-14T10:17:57.383Z,1000.15
2018-03-14T10:18:57.400Z,1000.13
2018-03-14T10:19:57.412Z,1000.16
2018-03-14T10:20:57.425Z,1000.16
2018-03-14T10:21:57.439Z,1000.17
2018-03-14T10:22:57.454Z,1000.15
2018-03-14T10:23:57.468Z,1000.14
2018-03-14T10:24:57.483Z,1000.18
2018-03-14T10:25:57.555Z,1000.25
2018-03-14T10:26:57.513Z,1000.24
2018-03-14T10:27:57.526Z,1000.27
2018-03-14T10:28:57.539Z,1000.24
2018-03-14T10:29:57.554Z,1000.22
2018-03-14T10:30:57.568Z,1000.26
2018-03-14T10:31:57.583Z,1000.21
2018-03-14T10:32:57.597Z,1000.24
2018-03-14T10:33:57.611Z,1000.22
2018-03-14T10:34:57.625Z,1000.21
2018-03-14T10:35:57.640Z,1000.27
2018-03-14T10:36:57.657Z,1000.23
2018-03-14T10:37:57.675Z,1000.24
2018-03-14T10:38:57.683Z,1000.23
2018-03-14T10:39:57.698Z,1000.25
2018-03-14T10:40:57.718Z,1000.22
2018-03-14T10:41:57.728Z,1000.19
2018-03-14T10:42:57.741Z,1000.2
2018-03-14T10:43:57.755Z,1000.22
2018-03-14T10:44:57.769Z,1000.23
2018-03-14T10:45:57.784Z,1000.27
2018-03-14T10:46:57.805Z,1000.23
2018-03-14T10:47:58.014Z,1000.25
2018-03-14T10:48:57.826Z,1000.25
2018-03-14T10:49:57.840Z,1000.28
2018-03-14T10:50:57.854Z,1000.26
2018-03-14T10:51:57.871Z,1000.24
2018-03-14T10:52:57.883Z,1000.22
2018-03-14T10:53:57.901Z,1000.22
2018-03-14T10:54:57.910Z,1000.24
2018-03-14T10:55:57.927Z,1000.27
2018-03-14T10:56:57.939Z,1000.21
2018-03-14T10:57:57.954Z,1000.23
2018-03-14T10:58:57.975Z,1000.28
2018-03-14T10:59:57.984Z,1000.26
2018-03-14T11:00:57.997Z,1000.26
2018-03-14T11:01:58.018Z,1000.27
2018-03-14T11:02:58.027Z,1000.28
2018-03-14T11:03:58.041Z,1000.31
2018-03-14T11:04:58.107Z,1000.29
2018-03-14T11:05:58.069Z,1000.31
2018-03-14T11:06:58.082Z,1000.27
2018-03-14T11:07:58.097Z,1000.27
2018-03-14T11:08:58.111Z,1000.24
2018-03-14T11:09:58.176Z,1000.23
2018-03-14T11:10:58.145Z,1000.25
2018-03-14T11:11:58.156Z,1000.22
2018-03-14T11:12:58.168Z,1000.22
2018-03-14T11:13:58.183Z,1000.22
2018-03-14T11:14:58.248Z,1000.22
2018-03-14T11:15:58.212Z,1000.2
2018-03-14T11:16:58.227Z,1000.18
2018-03-14T11:17:58.242Z,1000.21
2018-03-14T11:18:58.255Z,1000.2
2018-03-14T11:19:58.318Z,1000.17
2018-03-14T11:20:58.284Z,1000.18
2018-03-14T11:21:58.299Z,1000.2
2018-03-14T11:22:58.312Z,1000.15
2018-03-14T11:23:58.329Z,1000.16
2018-03-14T11:24:58.341Z,1000.14
2018-03-14T11:25:58.355Z,1000.15
2018-03-14T11:26:58.370Z,1000.13
2018-03-14T11:27:58.385Z,1000.14
2018-03-14T11:28:58.400Z,1000.1
2018-03-14T11:29:58.413Z,1000.15
2018-03-14T11:30:58.430Z,1000.16
2018-03-14T11:31:58.443Z,1000.09
2018-03-14T11:32:58.460Z,1000.07
2018-03-14T11:33:58.471Z,1000.08
2018-03-14T11:34:58.487Z,1000.07
2018-03-14T11:35:58.502Z,1000.07
2018-03-14T11:36:58.517Z,1000.02
2018-03-14T11:37:58.531Z,1000.03
2018-03-14T11:38:58.545Z,1000.01
2018-03-14T11:39:58.559Z,1000.02
2018-03-14T11:40:58.576Z,1000.01
2018-03-14T11:41:58.589Z,1000.02
2018-03-14T11:42:58.605Z,1000.01
2018-03-14T11:43:58.619Z,1000.03
2018-03-14T11:44:58.632Z,1000.06
2018-03-14T11:45:58.649Z,1000.04
2018-03-14T11:46:58.664Z,1000.07
2018-03-14T11:47:58.678Z,1000.13
2018-03-14T11:48:58.693Z,1000.07
2018-03-14T11:49:58.709Z,1000.05
2018-03-14T11:50:58.722Z,1000.09
2018-03-14T11:51:58.737Z,1000.08
2018-03-14T11:52:58.752Z,1000.09
2018-03-14T11:53:58.767Z,1000.15
2018-03-14T11:54:58.784Z,1000.15
2018-03-14T11:55:58.797Z,1000.16
2018-03-14T11:56:58.811Z,1000.12
2018-03-14T11:57:58.828Z,1000.15
2018-03-14T11:58:58.841Z,1000.13
2018-03-14T11:59:58.856Z,1000.2
2018-03-14T12:00:58.872Z,1000.19
2018-03-14T12:01:58.887Z,1000.2
2018-03-14T12:02:58.902Z,1000.2
2018-03-14T12:03:58.918Z,1000.17
2018-03-14T12:04:58.931Z,1000.14
2018-03-14T12:05:58.947Z,1000.14
2018-03-14T12:06:58.962Z,1000.17
2018-03-14T12:07:58.976Z,1000.17
2018-03-14T12:08:58.993Z,1000.16
2018-03-14T12:09:59.008Z,1000.13
2018-03-14T12:10:59.021Z,1000.14
2018-03-14T12:11:59.038Z,1000.12
2018-03-14T12:12:59.055Z,1000.14
2018-03-14T12:13:59.068Z,1000.1
2018-03-14T12:14:59.084Z,1000.08
2018-03-14T12:15:59.098Z,1000.08
2018-03-14T12:16:59.114Z,1000.03
2018-03-14T12:17:59.128Z,1000.06
2018-03-14T12:18:59.145Z,1000.02
2018-03-14T12:19:59.159Z,1000.02
2018-03-14T12:20:59.231Z,1000.01
2018-03-14T12:21:59.189Z,1000.03
2018-03-14T12:22:59.204Z,1000.02
2018-03-14T12:23:59.220Z,1000.04
2018-03-14T12:24:59.239Z,1000.01
2018-03-14T12:25:59.252Z,999.99